Time;durP1;ratioP1;P1;durP2;ratioP2;P2;SDS_P1;SDS_P2;PMS_P1;PMS_P2;Temp;Humidity;BMP_temperature;BMP_pressure;BME280_temperature;BME280_humidity;BME280_pressure;Samples;Min_cycle;Max_cycle;Signal;HPM_P1;HPM_P2
2023/01/12 00:02:11;;;;;;;14.43;4.93;;;;;;;;;;5053715;28;20465;-67
2023/01/12 00:04:38;;;;;;;18.33;5.32;;;;;;;;;;5054568;28;20054;-68
2023/01/12 00:07:08;;;;;;;18.38;4.97;;;;;;;;;;5056137;28;20397;-68
2023/01/12 00:09:34;;;;;;;16.52;4.72;;;;;;;;;;5055500;28;20579;-67
2023/01/12 00:12:02;;;;;;;17.27;5.13;;;;;;;;;;5049281;28;20025;-68
2023/01/12 00:14:28;;;;;;;18.02;5.47;;;;;;;;;;5054915;28;20039;-66
2023/01/12 00:16:54;;;;;;;18.50;5.22;;;;;;;;;;5056103;28;20275;-66
2023/01/12 00:19:21;;;;;;;17.42;4.75;;;;;;;;;;5058584;28;20047;-66
2023/01/12 00:21:59;;;;;;;20.58;5.38;;;;;;;;;;5059780;28;20205;-66
2023/01/12 00:24:26;;;;;;;18.13;5.00;;;;;;;;;;5061228;28;20032;-66
2023/01/12 00:26:53;;;;;;;19.27;4.68;;;;;;;;;;5052714;28;20127;-66
2023/01/12 00:29:20;;;;;;;19.67;4.80;;;;;;;;;;5055377;28;20086;-66
2023/01/12 00:31:46;;;;;;;21.40;4.25;;;;;;;;;;5055690;28;20540;-67
2023/01/12 00:34:12;;;;;;;17.95;4.18;;;;;;;;;;5054695;28;20040;-66
2023/01/12 00:36:38;;;;;;;14.90;4.00;;;;;;;;;;5056119;28;20079;-67
2023/01/12 00:39:05;;;;;;;16.33;3.58;;;;;;;;;;5049150;28;20028;-68
2023/01/12 00:47:01;;;;;;;17.30;4.18;;;;;;;;;;5049509;28;20063;-66
2023/01/12 00:49:27;;;;;;;;;;;;;;;;;;5057582;28;20201;-67
2023/01/12 00:51:53;;;;;;;16.73;3.88;;;;;;;;;;5063266;28;19911;-67
2023/01/12 00:54:19;;;;;;;;;;;;;;;;;;5049070;28;20137;-66
2023/01/12 00:56:45;;;;;;;15.45;4.00;;;;;;;;;;5052362;28;20282;-67
2023/01/12 00:59:12;;;;;;;20.67;4.53;;;;;;;;;;5051127;28;20028;-66
2023/01/12 01:01:38;;;;;;;20.58;4.45;;;;;;;;;;5052510;28;20031;-66
2023/01/12 01:04:04;;;;;;;17.00;4.68;;;;;;;;;;5052189;28;20446;-68
2023/01/12 01:06:30;;;;;;;16.10;3.95;;;;;;;;;;5056342;28;20112;-66
2023/01/12 01:08:56;;;;;;;20.83;4.57;;;;;;;;;;5052718;28;20489;-67
2023/01/12 01:11:23;;;;;;;24.02;5.10;;;;;;;;;;5053380;28;20110;-65
2023/01/12 01:13:49;;;;;;;22.30;4.85;;;;;;;;;;5051270;28;20433;-67
2023/01/12 01:16:16;;;;;;;18.25;4.65;;;;;;;;;;5049006;28;20040;-66
2023/01/12 01:18:42;;;;;;;19.92;4.25;;;;;;;;;;5060035;28;20031;-66
2023/01/12 01:21:08;;;;;;;;;;;;;;;;;;5049017;28;20109;-67
2023/01/12 01:23:35;;;;;;;18.52;4.60;;;;;;;;;;5053193;28;20423;-67
2023/01/12 01:26:02;;;;;;;20.85;4.70;;;;;;;;;;5049472;28;20032;-66
2023/01/12 01:28:29;;;;;;;19.15;4.78;;;;;;;;;;5056104;28;20036;-66
2023/01/12 01:31:02;;;;;;;17.02;4.13;;;;;;;;;;5052168;28;20711;-66
2023/01/12 01:33:28;;;;;;;19.85;4.00;;;;;;;;;;5054439;28;20360;-67
2023/01/12 01:35:55;;;;;;;18.92;3.97;;;;;;;;;;5054515;28;20058;-66
2023/01/12 01:38:22;;;;;;;20.83;3.90;;;;;;;;;;5053427;28;20020;-66
2023/01/12 01:40:48;;;;;;;15.50;3.78;;;;;;;;;;5051394;28;20028;-66
2023/01/12 01:43:14;;;;;;;20.70;4.05;;;;;;;;;;5053710;28;20480;-65
2023/01/12 01:45:41;;;;;;;;;;;;;;;;;;5054554;28;20036;-66
2023/01/12 01:48:10;;;;;;;17.65;4.10;;;;;;;;;;5053907;28;19912;-67
2023/01/12 01:50:37;;;;;;;17.65;3.50;;;;;;;;;;5058839;28;20034;-67
2023/01/12 01:53:09;;;;;;;14.05;3.92;;;;;;;;;;5049186;28;20075;-67
2023/01/12 01:55:40;;;;;;;17.23;3.42;;;;;;;;;;5050929;28;20028;-67
2023/01/12 01:58:15;;;;;;;21.75;4.10;;;;;;;;;;5050252;28;20365;-67
2023/01/12 02:00:42;;;;;;;18.38;3.65;;;;;;;;;;5055086;28;20316;-67
2023/01/12 02:03:09;;;;;;;20.20;4.18;;;;;;;;;;5050116;28;20028;-67
2023/01/12 02:05:36;;;;;;;18.33;3.67;;;;;;;;;;5050703;28;20387;-67
2023/01/12 02:08:14;;;;;;;17.48;3.67;;;;;;;;;;5046648;28;20032;-66
2023/01/12 02:10:40;;;;;;;19.35;4.53;;;;;;;;;;5055048;28;20085;-66
2023/01/12 02:16:20;;;;;;;18.25;4.45;;;;;;;;;;5056277;28;20336;-66
2023/01/12 02:18:53;;;;;;;20.77;4.70;;;;;;;;;;5057557;28;20085;-65
2023/01/12 02:21:23;;;;;;;18.52;3.97;;;;;;;;;;5053693;28;20038;-66
2023/01/12 02:23:58;;;;;;;21.02;3.80;;;;;;;;;;5055786;28;20486;-67
2023/01/12 02:26:43;;;;;;;22.05;4.28;;;;;;;;;;5051047;28;20821;-67
2023/01/12 02:29:32;;;;;;;19.02;4.38;;;;;;;;;;5055484;28;20288;-66
2023/01/12 02:31:58;;;;;;;19.92;4.32;;;;;;;;;;5051861;28;20064;-67
2023/01/12 02:34:50;;;;;;;23.42;4.50;;;;;;;;;;5053081;28;20161;-67
2023/01/12 02:37:36;;;;;;;19.05;4.78;;;;;;;;;;5052037;28;20490;-69
2023/01/12 02:40:11;;;;;;;20.02;4.70;;;;;;;;;;5049746;28;20761;-67
2023/01/12 02:42:41;;;;;;;25.08;4.15;;;;;;;;;;5047301;28;20020;-66
2023/01/12 02:45:26;;;;;;;20.05;4.20;;;;;;;;;;5051201;28;20092;-66
2023/01/12 02:48:01;;;;;;;19.15;4.47;;;;;;;;;;5058231;28;20348;-66
2023/01/12 02:50:36;;;;;;;18.25;3.95;;;;;;;;;;5052980;28;20035;-66
2023/01/12 02:53:06;;;;;;;19.48;4.40;;;;;;;;;;5047460;28;20375;-65
2023/01/12 02:55:33;;;;;;;20.55;4.85;;;;;;;;;;5056489;28;20039;-66
2023/01/12 02:58:00;;;;;;;21.75;4.72;;;;;;;;;;5048075;28;20059;-65
2023/01/12 03:00:27;;;;;;;19.80;4.25;;;;;;;;;;5050904;28;20045;-67
2023/01/12 03:02:53;;;;;;;;;;;;;;;;;;5054204;28;20135;-66
2023/01/12 03:05:19;;;;;;;22.27;4.20;;;;;;;;;;5050372;28;19923;-66
2023/01/12 03:07:45;;;;;;;;;;;;;;;;;;5048814;28;20277;-67
2023/01/12 03:10:30;;;;;;;20.55;4.43;;;;;;;;;;5059318;28;19913;-67
2023/01/12 03:12:57;;;;;;;20.00;4.85;;;;;;;;;;5051612;28;20039;-67
2023/01/12 03:15:27;;;;;;;22.55;4.78;;;;;;;;;;5056760;28;20386;-67
2023/01/12 03:18:04;;;;;;;22.05;4.68;;;;;;;;;;5057439;28;20155;-67
2023/01/12 03:20:30;;;;;;;;;;;;;;;;;;5056102;28;20180;-67
2023/01/12 03:23:02;;;;;;;21.40;4.75;;;;;;;;;;5053510;28;20438;-67
2023/01/12 03:25:31;;;;;;;23.92;4.88;;;;;;;;;;5054540;28;20486;-67
2023/01/12 03:27:59;;;;;;;23.98;4.90;;;;;;;;;;5050224;28;20038;-67
2023/01/12 03:30:35;;;;;;;22.02;4.57;;;;;;;;;;5056100;28;20063;-67
2023/01/12 03:33:02;;;;;;;20.60;4.65;;;;;;;;;;5052436;28;20446;-67
2023/01/12 03:35:31;;;;;;;17.70;4.53;;;;;;;;;;5053013;28;20035;-67
2023/01/12 03:37:58;;;;;;;20.50;4.70;;;;;;;;;;5050736;28;20194;-66
2023/01/12 03:40:28;;;;;;;19.95;4.72;;;;;;;;;;5055567;28;20016;-66
2023/01/12 03:43:12;;;;;;;19.63;4.53;;;;;;;;;;5051073;28;20027;-66
2023/01/12 03:45:47;;;;;;;16.92;4.63;;;;;;;;;;5057842;28;20653;-66
2023/01/12 03:48:13;;;;;;;17.52;4.13;;;;;;;;;;5052913;28;20475;-66
2023/01/12 03:50:43;;;;;;;19.95;5.00;;;;;;;;;;5052182;28;20040;-66
2023/01/12 03:53:10;;;;;;;19.58;4.32;;;;;;;;;;5052986;28;20658;-66
2023/01/12 03:55:38;;;;;;;22.52;4.45;;;;;;;;;;5061357;28;20177;-66
2023/01/12 03:58:04;;;;;;;19.92;4.88;;;;;;;;;;5052198;28;20028;-66
2023/01/12 04:00:30;;;;;;;;;;;;;;;;;;5053348;28;20078;-67
2023/01/12 04:03:13;;;;;;;27.38;5.05;;;;;;;;;;5051226;28;20564;-66
2023/01/12 04:05:40;;;;;;;20.17;5.13;;;;;;;;;;5055486;28;20044;-65
2023/01/12 04:08:06;;;;;;;22.08;4.80;;;;;;;;;;5060146;28;20043;-66
2023/01/12 04:10:33;;;;;;;24.25;5.00;;;;;;;;;;5052308;28;20024;-68
2023/01/12 04:12:59;;;;;;;22.42;5.10;;;;;;;;;;5047971;28;20043;-65
2023/01/12 04:15:25;;;;;;;26.35;5.13;;;;;;;;;;5057546;28;20109;-65
2023/01/12 04:17:51;;;;;;;;;;;;;;;;;;5055108;28;20054;-66
2023/01/12 04:20:18;;;;;;;23.48;5.60;;;;;;;;;;5061438;28;20145;-66
2023/01/12 04:22:45;;;;;;;20.25;4.82;;;;;;;;;;5055593;28;20024;-65
2023/01/12 04:25:12;;;;;;;21.35;4.95;;;;;;;;;;5049328;28;20043;-66
2023/01/12 04:28:01;;;;;;;22.45;5.10;;;;;;;;;;5056587;28;20020;-66
2023/01/12 04:30:28;;;;;;;17.95;4.60;;;;;;;;;;5057243;28;20273;-65
2023/01/12 04:32:55;;;;;;;24.65;4.95;;;;;;;;;;5056120;28;20442;-66
2023/01/12 04:35:23;;;;;;;23.10;4.63;;;;;;;;;;5053520;28;20131;-67
2023/01/12 04:37:49;;;;;;;24.40;5.00;;;;;;;;;;5057909;28;20487;-67
2023/01/12 04:40:16;;;;;;;23.40;4.97;;;;;;;;;;5051357;28;20387;-67
2023/01/12 04:43:00;;;;;;;;;;;;;;;;;;5054372;28;20475;-67
2023/01/12 04:45:27;;;;;;;24.95;4.63;;;;;;;;;;5052969;28;19912;-67
2023/01/12 04:47:53;;;;;;;23.95;4.82;;;;;;;;;;5055838;28;20031;-67
2023/01/12 04:50:20;;;;;;;22.80;5.10;;;;;;;;;;5053313;28;20766;-67
2023/01/12 04:52:46;;;;;;;19.20;4.13;;;;;;;;;;5055927;28;20407;-67
2023/01/12 04:55:12;;;;;;;21.13;4.68;;;;;;;;;;5049609;28;20324;-67
2023/01/12 04:57:38;;;;;;;23.77;4.20;;;;;;;;;;5060586;28;20533;-67
2023/01/12 05:00:05;;;;;;;21.65;4.32;;;;;;;;;;5051742;28;20475;-67
2023/01/12 05:02:31;;;;;;;29.13;5.15;;;;;;;;;;5053737;28;20039;-67
2023/01/12 05:04:57;;;;;;;20.58;5.03;;;;;;;;;;5051610;28;20058;-67
2023/01/12 05:07:23;;;;;;;20.08;5.53;;;;;;;;;;5054338;28;20730;-67
2023/01/12 05:12:34;;;;;;;19.58;4.65;;;;;;;;;;5057762;28;20132;-67
2023/01/12 05:15:02;;;;;;;23.15;4.85;;;;;;;;;;5050321;28;20029;-67
2023/01/12 05:17:28;;;;;;;24.85;5.72;;;;;;;;;;5052583;28;20025;-67
2023/01/12 05:19:54;;;;;;;18.35;4.53;;;;;;;;;;5052643;28;20031;-67
2023/01/12 05:22:20;;;;;;;27.73;6.25;;;;;;;;;;5057627;28;20545;-67
2023/01/12 05:24:47;;;;;;;27.70;6.53;;;;;;;;;;5057417;28;20458;-67
2023/01/12 05:27:13;;;;;;;22.92;5.55;;;;;;;;;;5053370;28;20042;-67
2023/01/12 05:29:39;;;;;;;29.05;6.65;;;;;;;;;;5059398;28;20032;-65
2023/01/12 05:32:05;;;;;;;;;;;;;;;;;;5053184;28;20040;-65
2023/01/12 05:34:31;;;;;;;27.17;6.03;;;;;;;;;;5054790;28;20357;-64
2023/01/12 05:36:57;;;;;;;27.75;6.28;;;;;;;;;;5054407;28;20031;-64
2023/01/12 05:39:24;;;;;;;24.45;5.43;;;;;;;;;;5053036;28;20484;-64
2023/01/12 05:44:34;;;;;;;26.65;4.95;;;;;;;;;;5052171;28;20055;-64
2023/01/12 05:47:00;;;;;;;28.38;6.20;;;;;;;;;;5051328;28;20059;-64
2023/01/12 05:49:26;;;;;;;23.83;6.07;;;;;;;;;;5051840;28;20107;-65
2023/01/12 05:51:53;;;;;;;25.05;5.82;;;;;;;;;;5053547;28;20583;-64
2023/01/12 05:54:19;;;;;;;28.30;5.68;;;;;;;;;;5050680;28;20075;-64
2023/01/12 05:56:45;;;;;;;28.13;6.35;;;;;;;;;;5054689;28;20031;-65
2023/01/12 05:59:11;;;;;;;22.67;5.55;;;;;;;;;;5054290;28;20141;-65
2023/01/12 06:01:39;;;;;;;28.70;7.70;;;;;;;;;;5052706;28;20030;-65
2023/01/12 06:04:05;;;;;;;33.15;8.02;;;;;;;;;;5052849;28;20096;-65
2023/01/12 06:06:31;;;;;;;37.42;7.82;;;;;;;;;;5059135;28;20044;-66
2023/01/12 06:08:59;;;;;;;29.58;6.30;;;;;;;;;;5050807;28;20446;-64
2023/01/12 06:14:11;;;;;;;28.55;7.70;;;;;;;;;;5051680;28;20078;-65
2023/01/12 06:16:38;;;;;;;33.50;8.38;;;;;;;;;;5052742;28;20028;-66
2023/01/12 06:19:04;;;;;;;34.10;8.93;;;;;;;;;;5052385;28;20741;-64
2023/01/12 06:21:31;;;;;;;32.20;8.23;;;;;;;;;;5055321;28;20024;-64
2023/01/12 06:23:57;;;;;;;34.47;8.82;;;;;;;;;;5053955;28;20404;-64
2023/01/12 06:26:24;;;;;;;29.85;8.27;;;;;;;;;;5054341;28;20032;-65
2023/01/12 06:28:50;;;;;;;34.78;8.40;;;;;;;;;;5054748;28;20113;-65
2023/01/12 06:31:16;;;;;;;36.03;9.55;;;;;;;;;;5051809;28;20032;-65
2023/01/12 06:33:42;;;;;;;36.28;10.80;;;;;;;;;;5056550;28;20415;-65
2023/01/12 06:36:08;;;;;;;43.13;11.43;;;;;;;;;;5050945;28;20044;-65
2023/01/12 06:38:39;;;;;;;35.08;10.95;;;;;;;;;;5059746;28;20081;-65
2023/01/12 06:43:58;;;;;;;27.98;9.75;;;;;;;;;;5054937;28;20508;-64
2023/01/12 06:46:25;;;;;;;26.77;8.90;;;;;;;;;;5055217;28;20292;-65
2023/01/12 06:48:51;;;;;;;30.02;6.95;;;;;;;;;;5054824;28;20495;-65
2023/01/12 06:51:18;;;;;;;27.55;5.38;;;;;;;;;;5049967;28;20542;-65
2023/01/12 06:53:44;;;;;;;27.92;5.28;;;;;;;;;;5051483;28;20048;-65
2023/01/12 06:56:10;;;;;;;27.90;5.35;;;;;;;;;;5054670;28;20121;-66
2023/01/12 06:58:36;;;;;;;19.45;4.68;;;;;;;;;;5060433;28;20016;-64
2023/01/12 07:01:03;;;;;;;20.33;5.35;;;;;;;;;;5053848;28;20056;-66
2023/01/12 07:03:29;;;;;;;;;;;;;;;;;;5053914;28;20024;-65
2023/01/12 07:05:59;;;;;;;18.35;4.93;;;;;;;;;;5055068;28;19959;-65
2023/01/12 07:08:25;;;;;;;16.45;4.63;;;;;;;;;;5053253;28;20040;-66
2023/01/12 07:10:51;;;;;;;20.85;4.53;;;;;;;;;;5056245;28;20036;-66
2023/01/12 07:13:17;;;;;;;24.38;4.93;;;;;;;;;;5050214;28;20042;-66
2023/01/12 07:15:43;;;;;;;18.65;4.53;;;;;;;;;;5056990;28;20050;-65
2023/01/12 07:18:09;;;;;;;22.00;4.82;;;;;;;;;;5057949;28;20130;-64
2023/01/12 07:20:35;;;;;;;28.17;5.47;;;;;;;;;;5053003;28;20078;-64
2023/01/12 07:23:01;;;;;;;18.77;5.72;;;;;;;;;;5053784;28;20133;-64
2023/01/12 07:25:28;;;;;;;21.50;5.63;;;;;;;;;;5051445;28;20478;-66
2023/01/12 07:27:55;;;;;;;24.20;6.32;;;;;;;;;;5057921;28;20039;-64
2023/01/12 07:30:22;;;;;;;25.23;8.10;;;;;;;;;;5060010;28;20444;-66
2023/01/12 07:32:49;;;;;;;25.58;7.57;;;;;;;;;;5051644;28;20565;-66
2023/01/12 07:35:15;;;;;;;;;;;;;;;;;;5050483;28;20832;-63
2023/01/12 07:37:51;;;;;;;19.63;5.75;;;;;;;;;;5049745;28;20354;-64
2023/01/12 07:40:17;;;;;;;20.42;6.38;;;;;;;;;;5051868;28;20184;-64
2023/01/12 07:42:43;;;;;;;;;;;;;;;;;;5055460;28;20512;-66
2023/01/12 07:45:10;;;;;;;20.10;5.97;;;;;;;;;;5051140;28;19912;-65
2023/01/12 07:47:36;;;;;;;24.38;5.70;;;;;;;;;;5057373;28;20111;-64
2023/01/12 07:50:02;;;;;;;19.00;6.35;;;;;;;;;;5049427;28;20497;-66
2023/01/12 07:52:29;;;;;;;19.95;7.47;;;;;;;;;;5056680;28;20825;-64
2023/01/12 07:54:55;;;;;;;20.77;7.07;;;;;;;;;;5049517;28;20044;-64
2023/01/12 07:57:21;;;;;;;18.52;6.45;;;;;;;;;;5057874;28;20028;-64
2023/01/12 07:59:47;;;;;;;18.52;6.25;;;;;;;;;;5059935;28;20008;-66
2023/01/12 08:02:18;;;;;;;24.58;7.22;;;;;;;;;;5052365;28;20039;-63
2023/01/12 08:04:44;;;;;;;25.83;6.10;;;;;;;;;;5051694;28;20025;-66
2023/01/12 08:07:10;;;;;;;27.95;7.10;;;;;;;;;;5055648;28;20497;-65
2023/01/12 08:09:37;;;;;;;25.60;7.13;;;;;;;;;;5056438;28;20478;-65
2023/01/12 08:12:04;;;;;;;26.73;6.78;;;;;;;;;;5055536;28;20054;-65
2023/01/12 08:14:33;;;;;;;23.52;7.00;;;;;;;;;;5056647;28;20024;-64
2023/01/12 08:17:01;;;;;;;20.42;5.60;;;;;;;;;;5050278;28;20028;-64
2023/01/12 08:19:37;;;;;;;18.98;5.97;;;;;;;;;;5054017;28;20086;-64
2023/01/12 08:22:04;;;;;;;16.60;5.07;;;;;;;;;;5053565;28;20027;-65
2023/01/12 08:24:33;;;;;;;17.95;7.18;;;;;;;;;;5051621;28;20436;-66
2023/01/12 08:27:00;;;;;;;20.67;7.45;;;;;;;;;;5052905;28;20489;-66
2023/01/12 08:29:30;;;;;;;17.65;6.93;;;;;;;;;;5054991;28;20027;-64
2023/01/12 08:32:01;;;;;;;21.10;7.07;;;;;;;;;;5051559;28;20959;-65
2023/01/12 08:34:27;;;;;;;18.88;7.70;;;;;;;;;;5056362;28;20063;-65
2023/01/12 08:36:55;;;;;;;25.23;10.13;;;;;;;;;;5050994;28;20293;-66
2023/01/12 08:39:21;;;;;;;26.33;11.82;;;;;;;;;;5053497;28;21084;-65
2023/01/12 08:41:47;;;;;;;22.92;10.52;;;;;;;;;;5060315;28;20031;-65
2023/01/12 08:44:14;;;;;;;20.88;8.75;;;;;;;;;;5050882;28;20032;-65
2023/01/12 08:46:40;;;;;;;21.40;5.95;;;;;;;;;;5053902;28;20128;-65
2023/01/12 08:49:10;;;;;;;18.10;4.65;;;;;;;;;;5047481;28;20021;-65
2023/01/12 08:51:38;;;;;;;13.65;3.10;;;;;;;;;;5058646;28;20117;-65
2023/01/12 08:54:04;;;;;;;13.27;3.35;;;;;;;;;;5054368;28;20072;-65
2023/01/12 08:56:30;;;;;;;;;;;;;;;;;;5062868;28;20564;-66
2023/01/12 08:58:56;;;;;;;19.02;4.22;;;;;;;;;;5050034;28;20075;-65
2023/01/12 09:01:22;;;;;;;;;;;;;;;;;;5054085;28;20020;-64
2023/01/12 09:03:48;;;;;;;14.02;3.70;;;;;;;;;;5052867;28;20345;-65
2023/01/12 09:06:14;;;;;;;;;;;;;;;;;;5053530;28;22099;-65
2023/01/12 09:08:41;;;;;;;14.52;3.80;;;;;;;;;;5056650;28;19916;-65
2023/01/12 09:11:08;;;;;;;18.33;3.80;;;;;;;;;;5053854;28;20032;-64
2023/01/12 09:13:34;;;;;;;12.15;3.55;;;;;;;;;;5052876;28;20143;-65
2023/01/12 09:16:04;;;;;;;13.32;3.22;;;;;;;;;;5049722;28;20275;-65
2023/01/12 09:18:30;;;;;;;14.13;3.17;;;;;;;;;;5054909;28;20048;-66
2023/01/12 09:20:56;;;;;;;;;;;;;;;;;;5051523;28;20063;-66
2023/01/12 09:23:23;;;;;;;13.10;3.60;;;;;;;;;;5055458;28;19919;-66
2023/01/12 09:25:48;;;;;;;;;;;;;;;;;;5058871;28;20031;-64
2023/01/12 09:28:15;;;;;;;11.50;2.60;;;;;;;;;;5047878;28;21523;-65
2023/01/12 09:30:41;;;;;;;;;;;;;;;;;;5056163;28;20028;-64
2023/01/12 09:33:07;;;;;;;10.98;1.88;;;;;;;;;;5049588;28;19920;-66
2023/01/12 09:35:33;;;;;;;;;;;;;;;;;;5055904;28;20487;-66
2023/01/12 09:37:59;;;;;;;10.05;2.10;;;;;;;;;;5052188;28;20378;-66
2023/01/12 09:40:25;;;;;;;;;;;;;;;;;;5055749;28;20316;-66
2023/01/12 09:48:22;;;;;;;6.25;1.75;;;;;;;;;;5048663;28;20048;-65
2023/01/12 09:50:51;;;;;;;8.38;1.98;;;;;;;;;;5053140;28;20028;-65
2023/01/12 09:53:20;;;;;;;9.93;1.90;;;;;;;;;;5055853;28;20047;-65
2023/01/12 09:55:52;;;;;;;8.75;1.73;;;;;;;;;;5052865;28;20028;-65
2023/01/12 09:58:27;;;;;;;8.93;2.20;;;;;;;;;;5053762;28;20031;-65
2023/01/12 10:00:55;;;;;;;11.40;2.97;;;;;;;;;;5052960;28;20354;-66
2023/01/12 10:03:29;;;;;;;10.30;3.42;;;;;;;;;;5049524;28;20539;-66
2023/01/12 10:05:59;;;;;;;8.93;3.03;;;;;;;;;;5052106;28;20427;-66
2023/01/12 10:08:32;;;;;;;11.43;2.72;;;;;;;;;;5054660;28;20039;-66
2023/01/12 10:11:06;;;;;;;9.52;2.30;;;;;;;;;;5057609;28;20128;-66
2023/01/12 10:13:46;;;;;;;9.05;2.00;;;;;;;;;;5054420;28;20055;-66
2023/01/12 10:16:20;;;;;;;9.60;2.17;;;;;;;;;;5050130;28;20028;-66
2023/01/12 10:18:48;;;;;;;9.98;2.30;;;;;;;;;;5051740;28;20033;-66
2023/01/12 10:21:14;;;;;;;9.13;1.90;;;;;;;;;;5053200;28;20031;-65
2023/01/12 10:23:40;;;;;;;7.18;1.85;;;;;;;;;;5057228;28;20394;-65
2023/01/12 10:26:27;;;;;;;11.23;2.08;;;;;;;;;;5051375;28;20038;-65
2023/01/12 10:28:55;;;;;;;8.38;1.90;;;;;;;;;;5059334;28;20405;-64
2023/01/12 10:31:22;;;;;;;11.60;2.28;;;;;;;;;;5058517;28;20390;-67
2023/01/12 10:34:08;;;;;;;8.13;2.00;;;;;;;;;;5055268;28;20155;-66
2023/01/12 10:36:36;;;;;;;7.30;2.00;;;;;;;;;;5063397;28;20642;-66
2023/01/12 10:39:04;;;;;;;7.50;1.60;;;;;;;;;;5049152;28;20028;-66
2023/01/12 10:41:31;;;;;;;9.93;2.10;;;;;;;;;;5064065;28;20354;-67
2023/01/12 10:44:00;;;;;;;8.43;1.75;;;;;;;;;;5051641;28;20027;-65
2023/01/12 10:46:28;;;;;;;9.73;2.13;;;;;;;;;;5055255;28;20097;-65
2023/01/12 10:49:14;;;;;;;7.03;1.90;;;;;;;;;;5057201;28;20474;-65
2023/01/12 10:51:48;;;;;;;9.57;2.28;;;;;;;;;;5055560;28;20032;-66
2023/01/12 10:54:17;;;;;;;9.48;1.80;;;;;;;;;;5050487;28;20155;-66
2023/01/12 10:57:00;;;;;;;7.30;1.80;;;;;;;;;;5058228;28;20113;-67
2023/01/12 10:59:28;;;;;;;7.85;1.63;;;;;;;;;;5058079;28;20066;-67
2023/01/12 11:02:07;;;;;;;8.60;1.85;;;;;;;;;;5058615;28;20561;-66
2023/01/12 11:04:37;;;;;;;7.22;1.48;;;;;;;;;;5054132;28;20528;-65
2023/01/12 11:07:27;;;;;;;7.32;1.65;;;;;;;;;;5052861;28;20330;-65
2023/01/12 11:09:54;;;;;;;8.55;1.98;;;;;;;;;;5057109;28;20628;-66
2023/01/12 11:12:26;;;;;;;7.22;1.70;;;;;;;;;;5054641;28;20196;-65
2023/01/12 11:14:58;;;;;;;7.25;1.67;;;;;;;;;;5052183;28;20544;-65
2023/01/12 11:17:31;;;;;;;8.07;1.70;;;;;;;;;;5052007;28;20033;-67
2023/01/12 11:19:59;;;;;;;5.60;1.42;;;;;;;;;;5054935;28;20274;-66
2023/01/12 11:22:29;;;;;;;8.82;1.70;;;;;;;;;;5057325;28;20171;-65
2023/01/12 11:25:25;;;;;;;6.72;1.48;;;;;;;;;;5057174;28;20517;-65
2023/01/12 11:28:11;;;;;;;7.00;1.52;;;;;;;;;;5053401;28;20050;-66
2023/01/12 11:30:39;;;;;;;;;;;;;;;;;;5040568;28;20213;-65
2023/01/12 11:33:12;;;;;;;8.75;1.95;;;;;;;;;;5045050;28;19942;-65
2023/01/12 11:35:44;;;;;;;6.50;1.48;;;;;;;;;;5052618;28;20567;-65
2023/01/12 11:38:16;;;;;;;7.57;1.70;;;;;;;;;;5051030;28;20282;-66
2023/01/12 11:40:43;;;;;;;6.57;1.67;;;;;;;;;;5055984;28;20055;-67
2023/01/12 11:43:54;;;;;;;7.15;1.83;;;;;;;;;;5051363;28;20032;-66
2023/01/12 11:46:34;;;;;;;6.93;1.73;;;;;;;;;;5000705;28;20120;-66
2023/01/12 11:49:10;;;;;;;15.82;3.40;;;;;;;;;;4997582;28;20071;-65
2023/01/12 11:51:36;;;;;;;24.60;3.55;;;;;;;;;;5000539;28;20431;-65
2023/01/12 11:54:04;;;;;;;8.98;1.80;;;;;;;;;;4998171;28;20053;-64
2023/01/12 11:56:49;;;;;;;6.38;1.50;;;;;;;;;;5000000;28;20274;-67
2023/01/12 11:59:30;;;;;;;9.63;2.00;;;;;;;;;;5000786;28;21388;-67
2023/01/12 12:02:15;;;;;;;7.90;1.95;;;;;;;;;;4998584;28;20099;-65
2023/01/12 12:04:45;;;;;;;7.15;1.80;;;;;;;;;;5015247;28;20045;-65
2023/01/12 12:07:21;;;;;;;8.48;2.00;;;;;;;;;;5016369;28;20036;-66
2023/01/12 12:09:47;;;;;;;8.13;2.13;;;;;;;;;;5019723;28;20312;-65
2023/01/12 12:12:31;;;;;;;8.52;1.92;;;;;;;;;;5017944;28;20046;-66
2023/01/12 12:15:13;;;;;;;6.13;1.38;;;;;;;;;;5019242;28;20230;-65
2023/01/12 12:17:45;;;;;;;6.30;1.50;;;;;;;;;;5018119;28;20033;-66
2023/01/12 12:20:14;;;;;;;9.18;1.80;;;;;;;;;;5015281;28;20103;-65
2023/01/12 12:23:00;;;;;;;8.30;1.60;;;;;;;;;;5054873;28;20433;-65
2023/01/12 12:25:29;;;;;;;7.47;1.73;;;;;;;;;;5057464;28;20079;-66
2023/01/12 12:28:02;;;;;;;9.38;2.20;;;;;;;;;;5060521;28;20078;-65
2023/01/12 12:30:44;;;;;;;8.43;1.70;;;;;;;;;;5066789;28;20040;-66
2023/01/12 12:33:28;;;;;;;7.93;1.52;;;;;;;;;;5058638;28;20425;-68
2023/01/12 12:36:15;;;;;;;7.90;1.70;;;;;;;;;;5064758;28;20118;-67
2023/01/12 12:39:00;;;;;;;6.07;1.40;;;;;;;;;;5061508;28;20572;-65
2023/01/12 12:47:26;;;;;;;13.27;2.88;;;;;;;;;;5057604;28;20515;-66
2023/01/12 12:49:55;;;;;;;8.63;2.40;;;;;;;;;;5049619;28;20465;-68
2023/01/12 12:52:22;;;;;;;6.45;1.75;;;;;;;;;;5057661;28;20390;-65
2023/01/12 12:54:50;;;;;;;7.40;1.92;;;;;;;;;;5051198;28;20036;-67
2023/01/12 12:57:17;;;;;;;7.28;1.50;;;;;;;;;;5055493;28;20631;-65
2023/01/12 12:59:58;;;;;;;5.72;1.40;;;;;;;;;;5053927;28;20509;-66
2023/01/12 13:02:30;;;;;;;6.97;1.38;;;;;;;;;;5058007;28;20437;-66
2023/01/12 13:05:00;;;;;;;4.90;1.13;;;;;;;;;;5049920;28;20040;-67
2023/01/12 13:07:27;;;;;;;6.57;1.73;;;;;;;;;;5057501;28;20368;-64
2023/01/12 13:10:03;;;;;;;8.93;2.10;;;;;;;;;;5050786;28;20322;-67
2023/01/12 13:12:33;;;;;;;5.03;1.30;;;;;;;;;;5053826;28;20659;-67
2023/01/12 13:15:20;;;;;;;6.93;1.40;;;;;;;;;;5052040;28;20393;-67
2023/01/12 13:17:47;;;;;;;6.35;1.50;;;;;;;;;;5055056;28;20024;-67
2023/01/12 13:20:13;;;;;;;7.10;1.70;;;;;;;;;;5051560;28;20036;-66
2023/01/12 13:22:49;;;;;;;6.63;1.90;;;;;;;;;;5057126;28;20058;-67
2023/01/12 13:25:15;;;;;;;7.82;1.65;;;;;;;;;;5058953;28;21325;-65
2023/01/12 13:27:47;;;;;;;6.18;1.58;;;;;;;;;;5053264;28;20031;-66
2023/01/12 13:30:20;;;;;;;7.38;2.10;;;;;;;;;;5052803;28;20834;-65
2023/01/12 13:32:56;;;;;;;8.32;1.88;;;;;;;;;;5051148;28;20039;-67
2023/01/12 13:35:28;;;;;;;7.93;1.70;;;;;;;;;;5049897;28;20039;-66
2023/01/12 13:38:14;;;;;;;7.30;1.58;;;;;;;;;;5052496;28;20680;-66
2023/01/12 13:40:40;;;;;;;9.20;1.90;;;;;;;;;;5052177;28;20066;-67
2023/01/12 13:43:15;;;;;;;10.20;2.08;;;;;;;;;;5046889;28;20035;-66
2023/01/12 13:45:54;;;;;;;8.98;2.60;;;;;;;;;;5050285;28;20039;-67
2023/01/12 13:48:21;;;;;;;8.65;2.78;;;;;;;;;;5049477;28;20130;-66
2023/01/12 13:50:50;;;;;;;9.10;2.00;;;;;;;;;;5052642;28;20125;-67
2023/01/12 13:53:23;;;;;;;9.88;4.00;;;;;;;;;;5046948;28;20063;-67
2023/01/12 13:56:00;;;;;;;9.10;2.85;;;;;;;;;;5049465;28;20052;-66
2023/01/12 13:58:27;;;;;;;17.95;10.45;;;;;;;;;;5053256;28;20032;-67
2023/01/12 14:01:00;;;;;;;9.73;2.83;;;;;;;;;;5050969;28;20084;-66
2023/01/12 14:03:33;;;;;;;11.20;5.55;;;;;;;;;;5055758;28;20024;-66
2023/01/12 14:06:10;;;;;;;11.40;5.28;;;;;;;;;;5047910;28;20059;-66
2023/01/12 14:08:36;;;;;;;7.53;1.90;;;;;;;;;;5053009;28;20546;-67
2023/01/12 14:11:21;;;;;;;9.68;2.90;;;;;;;;;;5050100;28;20449;-66
2023/01/12 14:13:57;;;;;;;8.07;2.33;;;;;;;;;;5049926;28;20805;-66
2023/01/12 14:19:40;;;;;;;8.70;2.15;;;;;;;;;;5052846;28;20122;-67
2023/01/12 14:22:16;;;;;;;10.13;4.07;;;;;;;;;;5031976;28;20067;-67
2023/01/12 14:24:42;;;;;;;16.88;12.40;;;;;;;;;;5054739;28;20569;-67
2023/01/12 14:27:21;;;;;;;15.38;10.45;;;;;;;;;;5044659;28;20032;-67
2023/01/12 14:29:47;;;;;;;16.15;10.68;;;;;;;;;;5048437;28;20037;-67
2023/01/12 14:32:14;;;;;;;11.52;4.13;;;;;;;;;;5049542;28;20195;-66
2023/01/12 14:34:47;;;;;;;5.50;1.50;;;;;;;;;;5033546;28;20423;-66
2023/01/12 14:37:25;;;;;;;7.28;2.03;;;;;;;;;;5043624;28;20375;-67
2023/01/12 14:39:52;;;;;;;14.02;8.90;;;;;;;;;;5049501;28;20399;-66
2023/01/12 14:48:23;;;;;;;6.90;1.80;;;;;;;;;;5046924;28;20039;-66
2023/01/12 14:50:49;;;;;;;;;;;;;;;;;;5046731;28;20070;-67
2023/01/12 14:53:31;;;;;;;8.55;2.42;;;;;;;;;;5048861;28;21150;-66
2023/01/12 14:56:05;;;;;;;7.13;1.90;;;;;;;;;;5047578;28;20489;-65
2023/01/12 14:58:31;;;;;;;10.35;4.50;;;;;;;;;;5052037;28;20127;-67
2023/01/12 15:00:58;;;;;;;10.73;5.72;;;;;;;;;;5051639;28;20087;-66
2023/01/12 15:03:24;;;;;;;5.45;1.70;;;;;;;;;;5061024;28;20036;-67
2023/01/12 15:05:53;;;;;;;5.65;1.33;;;;;;;;;;5059758;28;20054;-67
2023/01/12 15:08:27;;;;;;;9.45;2.72;;;;;;;;;;5056453;28;20034;-67
2023/01/12 15:11:04;;;;;;;8.00;2.90;;;;;;;;;;5053061;28;20028;-67
2023/01/12 15:13:31;;;;;;;17.60;12.02;;;;;;;;;;5052901;28;20149;-67
2023/01/12 15:27:01;;;;;;;21.70;12.07;;;;;;;;;;5050690;28;20039;-65
2023/01/12 15:29:28;;;;;;;21.42;13.30;;;;;;;;;;5057157;28;20024;-65
2023/01/12 15:31:54;;;;;;;16.15;9.77;;;;;;;;;;5056575;28;20777;-65
2023/01/12 15:34:20;;;;;;;22.75;15.85;;;;;;;;;;5052775;28;20032;-66
2023/01/12 15:36:46;;;;;;;12.57;6.10;;;;;;;;;;5057592;28;20446;-67
2023/01/12 15:39:13;;;;;;;11.32;4.15;;;;;;;;;;5052349;28;20051;-65
2023/01/12 15:44:25;;;;;;;17.55;9.05;;;;;;;;;;5058272;28;20497;-67
2023/01/12 15:46:51;;;;;;;17.75;9.50;;;;;;;;;;5055116;28;20020;-67
2023/01/12 15:49:18;;;;;;;12.35;4.10;;;;;;;;;;5054827;28;20039;-65
2023/01/12 15:51:46;;;;;;;12.88;5.07;;;;;;;;;;5052249;28;20038;-67